createdAt,value
2022-09-12T00:00:15.411Z,0.00
2022-09-12T00:01:15.479Z,0.00
2022-09-12T00:02:15.410Z,0.00
2022-09-12T00:03:15.405Z,0.00
2022-09-12T00:04:15.374Z,0.00
2022-09-12T00:05:15.336Z,0.00
2022-09-12T00:06:18.166Z,0.00
2022-09-12T00:07:16.323Z,0.00
2022-09-12T00:08:15.368Z,0.00
2022-09-12T00:09:15.313Z,0.00
2022-09-12T00:10:15.288Z,0.00
2022-09-12T00:11:15.272Z,0.00
2022-09-12T00:12:15.264Z,0.00
2022-09-12T00:13:15.299Z,0.00
2022-09-12T00:14:15.244Z,0.00
2022-09-12T00:15:15.242Z,0.00
2022-09-12T00:16:15.274Z,0.00
2022-09-12T00:17:15.204Z,0.00
2022-09-12T00:18:15.223Z,0.00
2022-09-12T00:19:15.201Z,0.00
2022-09-12T00:20:15.163Z,0.00
2022-09-12T00:21:15.168Z,0.00
2022-09-12T00:22:15.167Z,0.00
2022-09-12T00:23:15.192Z,0.00
2022-09-12T00:24:15.151Z,0.00
2022-09-12T00:25:15.125Z,0.00
2022-09-12T00:26:15.093Z,0.00
2022-09-12T00:27:15.102Z,0.00
2022-09-12T00:28:15.133Z,0.00
2022-09-12T00:29:15.099Z,0.00
2022-09-12T00:30:15.073Z,0.00
2022-09-12T00:31:15.122Z,0.00
2022-09-12T00:32:15.053Z,0.00
2022-09-12T00:33:15.070Z,0.00
2022-09-12T00:34:15.027Z,0.00
2022-09-12T00:35:15.008Z,0.00
2022-09-12T00:36:15.001Z,0.00
2022-09-12T00:37:14.989Z,0.00
2022-09-12T00:38:15.011Z,0.00
2022-09-12T00:39:14.966Z,0.00
2022-09-12T00:40:14.975Z,0.00
2022-09-12T00:41:14.952Z,0.00
2022-09-12T00:42:14.927Z,0.00
2022-09-12T00:43:14.964Z,0.00
2022-09-12T00:44:14.905Z,0.00
2022-09-12T00:45:14.911Z,0.00
2022-09-12T00:46:14.887Z,0.00
2022-09-12T00:47:14.864Z,0.00
2022-09-12T00:48:14.893Z,0.00
2022-09-12T00:49:14.836Z,0.00
2022-09-12T00:50:14.825Z,0.00
2022-09-12T00:51:14.821Z,0.00
2022-09-12T00:52:14.822Z,0.00
2022-09-12T00:53:14.855Z,0.00
2022-09-12T00:54:14.793Z,0.00
2022-09-12T00:55:14.788Z,0.00
2022-09-12T00:56:14.762Z,0.00
2022-09-12T00:57:14.765Z,0.00
2022-09-12T00:58:14.791Z,0.00
2022-09-12T00:59:14.747Z,0.00
2022-09-12T01:00:14.726Z,0.00
2022-09-12T01:01:14.817Z,0.00
2022-09-12T01:02:14.730Z,0.00
2022-09-12T01:03:14.735Z,0.00
2022-09-12T01:04:14.682Z,0.00
2022-09-12T01:05:14.674Z,0.00
2022-09-12T01:06:14.696Z,0.00
2022-09-12T01:07:14.655Z,0.00
2022-09-12T01:08:14.674Z,0.00
2022-09-12T01:09:14.627Z,0.00
2022-09-12T01:10:14.600Z,0.00
2022-09-12T01:11:14.606Z,0.00
2022-09-12T01:12:14.585Z,0.00
2022-09-12T01:13:14.615Z,0.00
2022-09-12T01:14:14.563Z,0.00
2022-09-12T01:15:14.571Z,0.00
2022-09-12T01:16:14.593Z,0.00
2022-09-12T01:17:14.558Z,0.00
2022-09-12T01:18:14.558Z,0.00
2022-09-12T01:19:14.498Z,0.00
2022-09-12T01:20:14.498Z,0.00
2022-09-12T01:21:14.479Z,0.00
2022-09-12T01:22:14.455Z,0.00
2022-09-12T01:23:14.499Z,0.00
2022-09-12T01:24:14.464Z,0.00
2022-09-12T01:25:14.449Z,0.00
2022-09-12T01:26:14.428Z,0.00
2022-09-12T01:27:14.435Z,0.00
2022-09-12T01:28:14.451Z,0.00
2022-09-12T01:29:14.411Z,0.00
2022-09-12T01:30:14.391Z,0.00
2022-09-12T01:31:14.386Z,0.00
2022-09-12T01:32:14.425Z,0.00
2022-09-12T01:33:14.377Z,0.00
2022-09-12T01:34:14.349Z,0.00
2022-09-12T01:35:14.323Z,0.00
2022-09-12T01:36:14.321Z,0.00
2022-09-12T01:37:14.308Z,0.00
2022-09-12T01:38:14.335Z,0.00
2022-09-12T01:39:14.287Z,0.00
2022-09-12T01:40:14.376Z,0.00
2022-09-12T01:41:14.265Z,0.00
2022-09-12T01:42:14.241Z,0.00
2022-09-12T01:43:14.298Z,0.00
2022-09-12T01:44:14.222Z,0.00
2022-09-12T01:45:14.221Z,0.00
2022-09-12T01:46:14.215Z,0.00
2022-09-12T01:47:14.208Z,0.00
2022-09-12T01:48:14.183Z,0.00
2022-09-12T01:49:14.215Z,0.00
2022-09-12T01:50:14.162Z,0.00
2022-09-12T01:51:14.143Z,0.00
2022-09-12T01:52:14.151Z,0.00
2022-09-12T01:53:14.122Z,0.00
2022-09-12T01:54:14.132Z,0.00
2022-09-12T01:55:14.103Z,0.00
2022-09-12T01:56:14.188Z,0.00
2022-09-12T01:57:14.080Z,0.00
2022-09-12T01:58:14.054Z,0.00
2022-09-12T01:59:14.090Z,0.00
2022-09-12T02:00:14.034Z,0.00
2022-09-12T02:01:14.105Z,0.00
2022-09-12T02:02:14.075Z,0.00
2022-09-12T02:03:14.010Z,0.00
2022-09-12T02:04:14.800Z,0.00
2022-09-12T02:05:13.974Z,0.00
2022-09-12T02:06:13.967Z,0.00
2022-09-12T02:07:13.968Z,0.00
2022-09-12T02:08:13.952Z,0.00
2022-09-12T02:09:13.973Z,0.00
2022-09-12T02:10:13.927Z,0.00
2022-09-12T02:11:13.923Z,0.00
2022-09-12T02:12:13.904Z,0.00
2022-09-12T02:13:13.904Z,0.00
2022-09-12T02:14:13.915Z,0.00
2022-09-12T02:15:13.877Z,0.00
2022-09-12T02:16:13.912Z,0.00
2022-09-12T02:17:13.857Z,0.00
2022-09-12T02:18:13.835Z,0.00
2022-09-12T02:19:13.867Z,0.00
2022-09-12T02:20:21.377Z,0.00
2022-09-12T02:21:14.802Z,0.00
2022-09-12T02:22:13.782Z,0.00
2022-09-12T02:23:13.785Z,0.00
2022-09-12T02:24:13.796Z,0.00
2022-09-12T02:25:13.768Z,0.00
2022-09-12T02:26:13.734Z,0.00
2022-09-12T02:27:13.732Z,0.00
2022-09-12T02:28:13.710Z,0.00
2022-09-12T02:29:13.753Z,0.00
2022-09-12T02:30:13.694Z,0.00
2022-09-12T02:31:13.687Z,0.00
2022-09-12T02:32:13.674Z,0.00
2022-09-12T02:33:13.669Z,0.00
2022-09-12T02:34:13.681Z,0.00
2022-09-12T02:35:13.653Z,0.00
2022-09-12T02:36:13.622Z,0.00
2022-09-12T02:37:13.625Z,0.00
2022-09-12T02:38:13.632Z,0.00
2022-09-12T02:39:13.637Z,0.00
2022-09-12T02:40:13.710Z,0.00
2022-09-12T02:41:13.578Z,0.00
2022-09-12T02:42:13.561Z,0.00
2022-09-12T02:43:13.545Z,0.00
2022-09-12T02:44:13.576Z,0.00
2022-09-12T02:45:13.526Z,0.00
2022-09-12T02:46:13.513Z,0.00
2022-09-12T02:47:13.516Z,0.00
2022-09-12T02:48:13.688Z,0.00
2022-09-12T02:49:13.526Z,0.00
2022-09-12T02:50:13.468Z,0.00
2022-09-12T02:51:13.455Z,0.00
2022-09-12T02:52:13.435Z,0.00
2022-09-12T02:53:13.434Z,0.00
2022-09-12T02:54:13.411Z,0.00
2022-09-12T02:55:13.456Z,0.00
2022-09-12T02:56:13.387Z,0.00
2022-09-12T02:57:13.385Z,0.00
2022-09-12T02:58:13.367Z,0.00
2022-09-12T02:59:13.348Z,0.00
2022-09-12T03:00:13.386Z,0.00
2022-09-12T03:01:13.360Z,0.00
2022-09-12T03:02:13.416Z,0.00
2022-09-12T03:03:13.327Z,0.00
2022-09-12T03:04:13.297Z,0.00
2022-09-12T03:05:13.288Z,0.00
2022-09-12T03:06:13.304Z,0.00
2022-09-12T03:07:13.282Z,0.00
2022-09-12T03:08:13.259Z,0.00
2022-09-12T03:09:13.248Z,0.00
2022-09-12T03:10:13.269Z,0.00
2022-09-12T03:11:13.224Z,0.00
2022-09-12T03:12:13.210Z,0.00
2022-09-12T03:13:13.214Z,0.00
2022-09-12T03:14:13.178Z,0.00
2022-09-12T03:15:13.224Z,0.00
2022-09-12T03:16:13.223Z,0.00
2022-09-12T03:17:13.160Z,0.00
2022-09-12T03:18:13.142Z,0.00
2022-09-12T03:19:13.140Z,0.00
2022-09-12T03:20:13.156Z,0.00
2022-09-12T03:21:13.124Z,0.00
2022-09-12T03:22:13.095Z,0.00
2022-09-12T03:23:13.088Z,0.00
2022-09-12T03:24:13.066Z,0.00
2022-09-12T03:25:13.101Z,0.00
2022-09-12T03:26:13.088Z,0.00
2022-09-12T03:27:13.047Z,0.00
2022-09-12T03:28:13.029Z,0.00
2022-09-12T03:29:13.031Z,0.00
2022-09-12T03:30:13.026Z,0.00
2022-09-12T03:31:13.040Z,0.00
2022-09-12T03:32:12.986Z,0.00
2022-09-12T03:33:12.973Z,0.00
2022-09-12T03:34:12.951Z,0.00
2022-09-12T03:35:12.947Z,0.00
2022-09-12T03:36:12.976Z,0.00
2022-09-12T03:37:12.927Z,0.00
2022-09-12T03:38:12.921Z,0.00
2022-09-12T03:39:12.900Z,0.00
2022-09-12T03:40:12.947Z,0.00
2022-09-12T03:41:12.930Z,0.00
2022-09-12T03:42:12.873Z,0.00
2022-09-12T03:43:12.868Z,0.00
2022-09-12T03:44:12.847Z,0.00
2022-09-12T03:45:12.835Z,0.00
2022-09-12T03:46:12.863Z,0.00
2022-09-12T03:47:12.820Z,0.00
2022-09-12T03:48:12.815Z,0.00
2022-09-12T03:49:12.802Z,0.00
2022-09-12T03:50:12.772Z,0.00
2022-09-12T03:51:12.817Z,0.00
2022-09-12T03:52:12.757Z,0.00
2022-09-12T03:53:16.558Z,0.00
2022-09-12T03:54:12.741Z,0.00
2022-09-12T03:55:12.723Z,0.00
2022-09-12T03:56:12.756Z,0.00
2022-09-12T03:57:12.710Z,0.00
2022-09-12T03:58:12.685Z,0.00
2022-09-12T03:59:12.687Z,0.00
2022-09-12T04:00:16.373Z,0.00
2022-09-12T04:01:13.828Z,0.00
2022-09-12T04:02:12.658Z,0.00
2022-09-12T04:03:12.655Z,0.00
2022-09-12T04:04:12.621Z,0.00
2022-09-12T04:05:12.619Z,0.00
2022-09-12T04:06:12.640Z,0.00
2022-09-12T04:07:12.587Z,0.00
2022-09-12T04:08:12.568Z,0.00
2022-09-12T04:09:12.564Z,0.00
2022-09-12T04:10:12.565Z,0.00
2022-09-12T04:11:12.587Z,0.00
2022-09-12T04:12:12.568Z,0.00
2022-09-12T04:13:12.529Z,0.00
2022-09-12T04:14:12.512Z,0.00
2022-09-12T04:15:12.506Z,0.00
2022-09-12T04:16:12.579Z,0.00
2022-09-12T04:17:12.485Z,0.00
2022-09-12T04:18:12.468Z,0.00
2022-09-12T04:19:12.465Z,0.00
2022-09-12T04:20:12.438Z,0.00
2022-09-12T04:21:12.473Z,0.00
2022-09-12T04:22:12.435Z,0.00
2022-09-12T04:23:12.411Z,0.00
2022-09-12T04:24:12.399Z,0.00
2022-09-12T04:25:12.391Z,5.62
2022-09-12T04:26:12.377Z,5.62
2022-09-12T04:27:12.402Z,5.62
2022-09-12T04:28:12.358Z,5.62
2022-09-12T04:29:12.353Z,5.62
2022-09-12T04:30:12.336Z,5.62
2022-09-12T04:31:12.333Z,5.62
2022-09-12T04:32:12.344Z,5.62
2022-09-12T04:33:12.304Z,5.62
2022-09-12T04:34:12.284Z,5.62
2022-09-12T04:35:12.294Z,5.62
2022-09-12T04:36:12.299Z,11.25
2022-09-12T04:37:12.251Z,11.25
2022-09-12T04:38:12.255Z,11.25
2022-09-12T04:39:12.234Z,11.25
2022-09-12T04:40:12.255Z,11.25
2022-09-12T04:41:12.257Z,16.88
2022-09-12T04:42:12.206Z,16.88
2022-09-12T04:43:14.506Z,22.50
2022-09-12T04:44:12.185Z,22.50
2022-09-12T04:45:12.167Z,28.12
2022-09-12T04:46:12.184Z,33.75
2022-09-12T04:47:12.174Z,33.75
2022-09-12T04:48:12.127Z,39.38
2022-09-12T04:49:12.121Z,45.00
2022-09-12T04:50:12.097Z,50.62
2022-09-12T04:51:12.096Z,50.62
2022-09-12T04:52:12.144Z,50.62
2022-09-12T04:53:12.067Z,56.25
2022-09-12T04:54:12.063Z,56.25
2022-09-12T04:55:12.048Z,61.88
2022-09-12T04:56:12.047Z,61.88
2022-09-12T04:57:12.065Z,67.50
2022-09-12T04:58:12.018Z,67.50
2022-09-12T04:59:12.047Z,67.50
2022-09-12T05:00:12.018Z,67.50
2022-09-12T05:01:12.022Z,67.50
2022-09-12T05:02:12.048Z,73.12
2022-09-12T05:03:11.956Z,73.12
2022-09-12T05:04:11.969Z,73.12
2022-09-12T05:05:11.935Z,78.75
2022-09-12T05:06:11.930Z,90.00
2022-09-12T05:07:11.966Z,90.00
2022-09-12T05:08:11.904Z,95.62
2022-09-12T05:09:11.893Z,95.62
2022-09-12T05:10:11.902Z,101.25
2022-09-12T05:11:11.881Z,106.88
2022-09-12T05:12:11.890Z,106.88
2022-09-12T05:13:11.835Z,106.88
2022-09-12T05:14:11.835Z,106.88
2022-09-12T05:15:11.809Z,112.50
2022-09-12T05:16:11.889Z,118.12
2022-09-12T05:17:11.849Z,118.12
2022-09-12T05:18:11.806Z,118.12
2022-09-12T05:19:11.777Z,118.12
2022-09-12T05:20:11.764Z,118.12
2022-09-12T05:21:11.749Z,112.50
2022-09-12T05:22:11.815Z,118.12
2022-09-12T05:23:11.740Z,123.75
2022-09-12T05:24:11.732Z,129.38
2022-09-12T05:25:11.701Z,135.00
2022-09-12T05:26:11.700Z,135.00
2022-09-12T05:27:11.731Z,135.00
2022-09-12T05:28:11.689Z,135.00
2022-09-12T05:29:11.656Z,135.00
2022-09-12T05:30:11.661Z,140.62
2022-09-12T05:31:11.629Z,151.88
2022-09-12T05:32:11.662Z,157.50
2022-09-12T05:33:11.622Z,157.50
2022-09-12T05:34:11.605Z,163.12
2022-09-12T05:35:11.590Z,168.75
2022-09-12T05:36:11.590Z,174.38
2022-09-12T05:37:11.607Z,174.38
2022-09-12T05:38:11.570Z,180.00
2022-09-12T05:39:11.551Z,185.62
2022-09-12T05:40:11.593Z,191.25
2022-09-12T05:41:16.925Z,202.50
2022-09-12T05:42:12.548Z,213.75
2022-09-12T05:43:11.501Z,225.00
2022-09-12T05:44:11.500Z,236.25
2022-09-12T05:45:11.478Z,247.50
2022-09-12T05:46:11.555Z,258.75
2022-09-12T05:47:11.494Z,275.62
2022-09-12T05:48:11.434Z,292.50
2022-09-12T05:49:11.468Z,303.75
2022-09-12T05:50:11.430Z,320.62
2022-09-12T05:51:11.413Z,320.62
2022-09-12T05:52:11.440Z,326.25
2022-09-12T05:53:11.393Z,331.88
2022-09-12T05:54:11.379Z,343.12
2022-09-12T05:55:11.363Z,354.38
2022-09-12T05:56:11.363Z,360.00
2022-09-12T05:57:11.391Z,371.25
2022-09-12T05:58:11.341Z,382.50
2022-09-12T05:59:11.323Z,393.75
2022-09-12T06:00:11.299Z,399.38
2022-09-12T06:01:11.382Z,405.00
2022-09-12T06:02:11.364Z,405.00
2022-09-12T06:03:11.276Z,416.25
2022-09-12T06:04:11.259Z,421.88
2022-09-12T06:05:11.251Z,421.88
2022-09-12T06:06:11.247Z,416.25
2022-09-12T06:07:11.252Z,421.88
2022-09-12T06:08:11.225Z,421.88
2022-09-12T06:09:11.228Z,433.12
2022-09-12T06:10:11.207Z,438.75
2022-09-12T06:11:11.176Z,450.00
2022-09-12T06:12:11.232Z,461.25
2022-09-12T06:13:11.161Z,478.12
2022-09-12T06:14:11.153Z,489.38
2022-09-12T06:15:11.141Z,506.25
2022-09-12T06:16:11.140Z,551.25
2022-09-12T06:17:11.113Z,703.12
2022-09-12T06:18:11.146Z,759.38
2022-09-12T06:19:11.092Z,663.75
2022-09-12T06:20:11.078Z,579.38
2022-09-12T06:21:11.055Z,540.00
2022-09-12T06:22:11.058Z,528.75
2022-09-12T06:23:11.085Z,540.00
2022-09-12T06:24:11.041Z,551.25
2022-09-12T06:25:11.030Z,551.25
2022-09-12T06:26:11.011Z,562.50
2022-09-12T06:27:10.994Z,568.12
2022-09-12T06:28:11.038Z,624.38
2022-09-12T06:29:10.986Z,646.88
2022-09-12T06:30:10.971Z,736.88
2022-09-12T06:31:10.998Z,720.00
2022-09-12T06:32:10.973Z,770.62
2022-09-12T06:33:10.985Z,770.62
2022-09-12T06:34:10.927Z,703.12
2022-09-12T06:35:10.918Z,562.50
2022-09-12T06:36:12.502Z,562.50
2022-09-12T06:37:10.885Z,601.88
2022-09-12T06:38:10.932Z,579.38
2022-09-12T06:39:10.870Z,590.62
2022-09-12T06:40:10.910Z,601.88
2022-09-12T06:41:10.858Z,630.00
2022-09-12T06:42:10.889Z,635.62
2022-09-12T06:43:10.818Z,641.25
2022-09-12T06:44:10.830Z,641.25
2022-09-12T06:45:10.791Z,652.50
2022-09-12T06:46:10.850Z,691.88
2022-09-12T06:47:10.814Z,703.12
2022-09-12T06:48:10.767Z,770.62
2022-09-12T06:49:10.769Z,787.50
2022-09-12T06:50:10.762Z,804.38
2022-09-12T06:51:10.726Z,821.25
2022-09-12T06:52:10.764Z,821.25
2022-09-12T06:53:10.703Z,793.12
2022-09-12T06:54:10.692Z,776.25
2022-09-12T06:55:10.676Z,776.25
2022-09-12T06:56:10.676Z,804.38
2022-09-12T06:57:10.655Z,843.75
2022-09-12T06:58:10.695Z,877.50
2022-09-12T06:59:10.661Z,916.88
2022-09-12T07:00:10.638Z,888.75
2022-09-12T07:01:10.653Z,888.75
2022-09-12T07:02:10.663Z,883.12
2022-09-12T07:03:10.630Z,888.75
2022-09-12T07:04:10.597Z,894.38
2022-09-12T07:05:10.585Z,877.50
2022-09-12T07:06:10.567Z,871.88
2022-09-12T07:07:10.563Z,877.50
2022-09-12T07:08:10.585Z,900.00
2022-09-12T07:09:10.568Z,922.50
2022-09-12T07:10:10.532Z,922.50
2022-09-12T07:11:10.515Z,933.75
2022-09-12T07:12:10.513Z,973.12
2022-09-12T07:13:10.514Z,1001.25
2022-09-12T07:14:10.493Z,1006.88
2022-09-12T07:15:10.452Z,1023.75
2022-09-12T07:16:10.456Z,1063.12
2022-09-12T07:17:10.466Z,1085.62
2022-09-12T07:18:10.469Z,1091.25
2022-09-12T07:19:10.451Z,1040.62
2022-09-12T07:20:10.412Z,1006.88
2022-09-12T07:21:10.397Z,1012.50
2022-09-12T07:22:10.385Z,1040.62
2022-09-12T07:23:10.419Z,1080.00
2022-09-12T07:24:10.558Z,1068.75
2022-09-12T07:25:10.341Z,1051.88
2022-09-12T07:26:10.331Z,1035.00
2022-09-12T07:27:10.315Z,1046.25
2022-09-12T07:28:10.344Z,1074.38
2022-09-12T07:29:35.451Z,1080.00
2022-09-12T07:30:11.294Z,1091.25
2022-09-12T07:31:10.338Z,1113.75
2022-09-12T07:32:10.278Z,1125.00
2022-09-12T07:33:10.254Z,1068.75
2022-09-12T07:34:10.289Z,978.75
2022-09-12T07:35:10.249Z,967.50
2022-09-12T07:36:10.230Z,1006.88
2022-09-12T07:37:10.218Z,1096.88
2022-09-12T07:38:10.210Z,1153.12
2022-09-12T07:39:10.224Z,1203.75
2022-09-12T07:40:10.215Z,1226.25
2022-09-12T07:41:10.176Z,1130.62
2022-09-12T07:42:10.165Z,1074.38
2022-09-12T07:43:10.133Z,1164.38
2022-09-12T07:44:10.171Z,1096.88
2022-09-12T07:45:10.109Z,1271.25
2022-09-12T07:46:10.177Z,1181.25
2022-09-12T07:47:10.091Z,1220.62
2022-09-12T07:48:10.099Z,1423.12
2022-09-12T07:49:10.124Z,1591.88
2022-09-12T07:50:10.076Z,2750.62
2022-09-12T07:51:10.071Z,2941.88
2022-09-12T07:52:10.052Z,2863.12
2022-09-12T07:53:10.042Z,1743.75
2022-09-12T07:54:10.111Z,1676.25
2022-09-12T07:55:10.029Z,2244.38
2022-09-12T07:56:10.030Z,1867.50
2022-09-12T07:57:09.985Z,1535.62
2022-09-12T07:58:09.999Z,1344.38
2022-09-12T07:59:09.995Z,1344.38
2022-09-12T08:00:09.957Z,1248.75
2022-09-12T08:01:09.971Z,995.62
2022-09-12T08:02:13.485Z,984.38
2022-09-12T08:03:10.914Z,1057.50
2022-09-12T08:04:09.948Z,883.12
2022-09-12T08:05:09.945Z,1001.25
2022-09-12T08:06:09.902Z,781.88
2022-09-12T08:07:09.871Z,810.00
2022-09-12T08:08:09.891Z,961.88
2022-09-12T08:09:09.914Z,1192.50
2022-09-12T08:10:09.859Z,1546.88
2022-09-12T08:11:09.836Z,1710.00
2022-09-12T08:12:09.825Z,1411.88
2022-09-12T08:13:10.909Z,1372.50
2022-09-12T08:14:09.847Z,1085.62
2022-09-12T08:15:09.782Z,973.12
2022-09-12T08:16:09.834Z,922.50
2022-09-12T08:17:09.763Z,1631.25
2022-09-12T08:18:09.757Z,1704.38
2022-09-12T08:19:09.789Z,1164.38
2022-09-12T08:20:09.737Z,2491.88
2022-09-12T08:21:09.717Z,2497.50
2022-09-12T08:22:09.719Z,928.12
2022-09-12T08:23:09.703Z,826.88
2022-09-12T08:24:09.721Z,978.75
2022-09-12T08:25:09.696Z,995.62
2022-09-12T08:26:09.685Z,933.75
2022-09-12T08:27:09.656Z,1051.88
2022-09-12T08:28:09.643Z,1192.50
2022-09-12T08:29:09.665Z,3009.38
2022-09-12T08:30:09.626Z,1170.00
2022-09-12T08:31:09.654Z,787.50
2022-09-12T08:32:09.595Z,815.62
2022-09-12T08:33:09.583Z,838.12
2022-09-12T08:34:09.612Z,866.25
2022-09-12T08:35:09.571Z,860.62
2022-09-12T08:36:09.564Z,725.62
2022-09-12T08:37:09.553Z,798.75
2022-09-12T08:38:09.538Z,832.50
2022-09-12T08:39:09.564Z,815.62
2022-09-12T08:40:09.527Z,1051.88
2022-09-12T08:41:09.497Z,1158.75
2022-09-12T08:43:10.471Z,1141.88
2022-09-12T08:44:09.507Z,1153.12
2022-09-12T08:45:09.458Z,1192.50
2022-09-12T08:46:09.549Z,1254.38
2022-09-12T08:47:09.434Z,1355.62
2022-09-12T08:48:09.424Z,1912.50
2022-09-12T08:49:09.440Z,2216.25
2022-09-12T08:50:09.392Z,2418.75
2022-09-12T08:51:09.404Z,4455.00
2022-09-12T08:52:09.401Z,3735.00
2022-09-12T08:53:09.349Z,3549.38
2022-09-12T08:54:09.395Z,3138.75
2022-09-12T08:55:09.380Z,2081.25
2022-09-12T08:56:09.338Z,1951.88
2022-09-12T08:57:09.323Z,3211.88
2022-09-12T08:58:09.295Z,3532.50
2022-09-12T08:59:09.291Z,1912.50
2022-09-12T09:00:09.333Z,1569.38
2022-09-12T09:01:09.357Z,1850.62
2022-09-12T09:02:09.325Z,1338.75
2022-09-12T09:03:09.253Z,3515.62
2022-09-12T09:04:09.239Z,2559.38
2022-09-12T09:05:09.270Z,1378.12
2022-09-12T09:06:09.201Z,961.88
2022-09-12T09:07:09.198Z,866.25
2022-09-12T09:08:09.181Z,798.75
2022-09-12T09:09:09.186Z,804.38
2022-09-12T09:10:09.203Z,877.50
2022-09-12T09:11:09.167Z,1006.88
2022-09-12T09:12:09.175Z,3555.00
2022-09-12T09:13:09.144Z,4055.62
2022-09-12T09:14:09.126Z,4623.75
2022-09-12T09:15:09.152Z,5152.50
2022-09-12T09:16:09.227Z,2002.50
2022-09-12T09:17:09.101Z,1530.00
2022-09-12T09:18:09.074Z,5096.25
2022-09-12T09:19:09.065Z,1108.12
2022-09-12T09:20:09.131Z,759.38
2022-09-12T09:21:09.062Z,697.50
2022-09-12T09:22:09.140Z,669.38
2022-09-12T09:23:09.027Z,658.12
2022-09-12T09:24:09.018Z,714.38
2022-09-12T09:25:09.041Z,748.12
2022-09-12T09:26:08.999Z,860.62
2022-09-12T09:27:29.707Z,973.12
2022-09-12T09:28:09.959Z,1035.00
2022-09-12T09:29:08.970Z,1035.00
2022-09-12T09:30:08.992Z,1029.38
2022-09-12T09:31:08.960Z,1012.50
2022-09-12T09:32:08.933Z,1012.50
2022-09-12T09:33:08.922Z,1074.38
2022-09-12T09:34:08.901Z,1321.88
2022-09-12T09:35:08.957Z,2030.62
2022-09-12T09:36:08.891Z,1440.00
2022-09-12T09:37:08.882Z,1451.25
2022-09-12T09:38:08.895Z,1653.75
2022-09-12T09:39:08.838Z,2778.75
2022-09-12T09:40:08.899Z,1192.50
2022-09-12T09:41:08.835Z,1063.12
2022-09-12T09:42:08.827Z,1035.00
2022-09-12T09:43:08.819Z,1035.00
2022-09-12T09:44:08.813Z,1051.88
2022-09-12T09:45:08.839Z,1046.25
2022-09-12T09:46:08.826Z,1029.38
2022-09-12T09:47:08.780Z,1046.25
2022-09-12T09:48:08.739Z,1006.88
2022-09-12T09:49:08.742Z,1001.25
2022-09-12T09:50:08.760Z,950.62
2022-09-12T09:51:08.732Z,922.50
2022-09-12T09:52:08.705Z,894.38
2022-09-12T09:53:08.691Z,939.38
2022-09-12T09:54:08.687Z,945.00
2022-09-12T09:55:08.712Z,1001.25
2022-09-12T09:56:08.673Z,1040.62
2022-09-12T09:57:08.669Z,1125.00
2022-09-12T09:58:08.640Z,1141.88
2022-09-12T09:59:08.652Z,1136.25
2022-09-12T10:00:08.651Z,1158.75
2022-09-12T10:01:08.678Z,3065.62
2022-09-12T10:02:08.654Z,4421.25
2022-09-12T10:03:13.167Z,1113.75
2022-09-12T10:04:09.591Z,1203.75
2022-09-12T10:05:08.612Z,877.50
2022-09-12T10:06:08.561Z,883.12
2022-09-12T10:07:08.550Z,871.88
2022-09-12T10:08:08.528Z,843.75
2022-09-12T10:09:08.530Z,871.88
2022-09-12T10:10:08.512Z,900.00
2022-09-12T10:11:08.534Z,916.88
2022-09-12T10:12:08.461Z,916.88
2022-09-12T10:13:08.469Z,922.50
2022-09-12T10:14:08.454Z,928.12
2022-09-12T10:15:08.455Z,945.00
2022-09-12T10:16:08.571Z,984.38
2022-09-12T10:17:08.439Z,1029.38
2022-09-12T10:18:08.440Z,1085.62
2022-09-12T10:19:08.420Z,1141.88
2022-09-12T10:20:21.269Z,1181.25
2022-09-12T10:21:09.393Z,1209.38
2022-09-12T10:22:08.365Z,1226.25
2022-09-12T10:23:08.373Z,1265.62
2022-09-12T10:24:08.373Z,1456.88
2022-09-12T10:25:08.413Z,1248.75
2022-09-12T10:26:08.330Z,1372.50
2022-09-12T10:27:08.311Z,1209.38
2022-09-12T10:28:08.314Z,1220.62
2022-09-12T10:29:08.287Z,1400.62
2022-09-12T10:30:08.326Z,2216.25
2022-09-12T10:31:08.355Z,2508.75
2022-09-12T10:32:08.251Z,2013.75
2022-09-12T10:33:08.250Z,1665.00
2022-09-12T10:34:08.230Z,2311.88
2022-09-12T10:35:08.283Z,2576.25
2022-09-12T10:36:08.204Z,2643.75
2022-09-12T10:37:08.210Z,2311.88
2022-09-12T10:38:08.177Z,2559.38
2022-09-12T10:39:08.178Z,2542.50
2022-09-12T10:40:08.240Z,2525.62
2022-09-12T10:41:08.184Z,2491.88
2022-09-12T10:42:08.155Z,2475.00
2022-09-12T10:43:08.142Z,2469.38
2022-09-12T10:44:08.115Z,2486.25
2022-09-12T10:45:08.149Z,2486.25
2022-09-12T10:46:08.205Z,2497.50
2022-09-12T10:47:08.086Z,2514.38
2022-09-12T10:48:08.091Z,2475.00
2022-09-12T10:49:08.093Z,2458.12
2022-09-12T10:50:08.110Z,2441.25
2022-09-12T10:51:08.047Z,2413.12
2022-09-12T10:52:08.063Z,2401.88
2022-09-12T10:53:08.034Z,2362.50
2022-09-12T10:54:08.039Z,2356.88
2022-09-12T10:55:08.043Z,2340.00
2022-09-12T10:56:08.001Z,2356.88
2022-09-12T10:57:07.992Z,2261.25
2022-09-12T10:58:07.969Z,2238.75
2022-09-12T10:59:07.987Z,2227.50
2022-09-12T11:00:08.009Z,2255.62
2022-09-12T11:01:08.001Z,2272.50
2022-09-12T11:02:07.979Z,2199.38
2022-09-12T11:03:07.927Z,2233.12
2022-09-12T11:04:07.912Z,2227.50
2022-09-12T11:05:07.957Z,2210.62
2022-09-12T11:06:07.883Z,2250.00
2022-09-12T11:07:07.896Z,2216.25
2022-09-12T11:08:07.883Z,2261.25
2022-09-12T11:09:07.870Z,2283.75
2022-09-12T11:10:07.878Z,2278.12
2022-09-12T11:11:07.830Z,2272.50
2022-09-12T11:12:07.843Z,2255.62
2022-09-12T11:13:07.836Z,2295.00
2022-09-12T11:14:07.806Z,2306.25
2022-09-12T11:15:07.835Z,2300.62
2022-09-12T11:16:07.857Z,2311.88
2022-09-12T11:17:11.632Z,2295.00
2022-09-12T11:18:08.776Z,2300.62
2022-09-12T11:19:07.742Z,2311.88
2022-09-12T11:20:07.769Z,2306.25
2022-09-12T11:21:07.761Z,2306.25
2022-09-12T11:22:07.717Z,2311.88
2022-09-12T11:23:07.700Z,2295.00
2022-09-12T11:24:07.699Z,2368.12
2022-09-12T11:25:07.727Z,2390.62
2022-09-12T11:26:07.694Z,2401.88
2022-09-12T11:27:07.688Z,2430.00
2022-09-12T11:28:07.655Z,2441.25
2022-09-12T11:29:07.665Z,2486.25
2022-09-12T11:30:07.682Z,2463.75
2022-09-12T11:31:07.739Z,2458.12
2022-09-12T11:32:07.612Z,2514.38
2022-09-12T11:33:07.620Z,2475.00
2022-09-12T11:34:07.601Z,2497.50
2022-09-12T11:35:07.635Z,2576.25
2022-09-12T11:36:07.601Z,2666.25
2022-09-12T11:37:10.690Z,2700.00
2022-09-12T11:38:07.552Z,2615.62
2022-09-12T11:39:07.549Z,2587.50
2022-09-12T11:40:07.625Z,2694.38
2022-09-12T11:41:07.546Z,2700.00
2022-09-12T11:42:07.501Z,2688.75
2022-09-12T11:43:07.505Z,2660.62
2022-09-12T11:44:07.500Z,2756.25
2022-09-12T11:45:07.533Z,2649.38
2022-09-12T11:46:07.498Z,2711.25
2022-09-12T11:47:07.476Z,2671.88
2022-09-12T11:48:07.459Z,2638.12
2022-09-12T11:49:07.475Z,2593.12
2022-09-12T11:50:07.425Z,2497.50
2022-09-12T11:51:07.499Z,2480.62
2022-09-12T11:52:07.415Z,2497.50
2022-09-12T11:53:07.395Z,2559.38
2022-09-12T11:54:07.391Z,2536.88
2022-09-12T11:55:07.391Z,2548.12
2022-09-12T11:56:07.410Z,2531.25
2022-09-12T11:57:07.370Z,2525.62
2022-09-12T11:58:07.339Z,2323.12
2022-09-12T11:59:07.342Z,2469.38
2022-09-12T12:00:07.321Z,2435.62
2022-09-12T12:01:07.358Z,2362.50
2022-09-12T12:02:07.361Z,1890.00
2022-09-12T12:03:07.296Z,1839.38
2022-09-12T12:04:07.299Z,1012.50
2022-09-12T12:05:07.275Z,1642.50
2022-09-12T12:06:07.298Z,753.75
2022-09-12T12:07:07.252Z,714.38
2022-09-12T12:08:07.230Z,703.12
2022-09-12T12:09:07.222Z,708.75
2022-09-12T12:10:07.220Z,759.38
2022-09-12T12:11:07.251Z,2160.00
2022-09-12T12:12:07.191Z,2098.12
2022-09-12T12:13:10.708Z,2120.62
2022-09-12T12:14:08.179Z,2165.62
2022-09-12T12:15:07.209Z,2120.62
2022-09-12T12:16:07.303Z,2154.38
2022-09-12T12:17:07.135Z,1833.75
2022-09-12T12:18:07.125Z,2098.12
2022-09-12T12:19:10.576Z,1833.75
2022-09-12T12:20:08.785Z,1608.75
2022-09-12T12:21:07.115Z,1080.00
2022-09-12T12:22:07.079Z,1074.38
2022-09-12T12:23:07.075Z,1687.50
2022-09-12T12:24:07.061Z,742.50
2022-09-12T12:25:07.078Z,900.00
2022-09-12T12:26:07.037Z,2086.88
2022-09-12T12:27:07.025Z,2120.62
2022-09-12T12:28:07.028Z,2103.75
2022-09-12T12:29:07.007Z,2053.12
2022-09-12T12:30:07.050Z,2103.75
2022-09-12T12:31:07.013Z,2070.00
2022-09-12T12:32:06.975Z,2075.62
2022-09-12T12:33:06.986Z,2036.25
2022-09-12T12:34:06.965Z,1996.88
2022-09-12T12:35:06.983Z,1974.38
2022-09-12T12:36:06.953Z,1957.50
2022-09-12T12:37:07.394Z,1946.25
2022-09-12T12:38:06.940Z,1957.50
2022-09-12T12:39:06.905Z,1951.88